createdAt,value
2018-02-06T00:00:35.696Z,10.87
2018-02-06T00:03:03.238Z,12.17
2018-02-06T00:05:31.563Z,12.20
2018-02-06T00:07:59.102Z,12.10
2018-02-06T00:10:26.679Z,11.82
2018-02-06T00:12:54.226Z,12.33
2018-02-06T00:15:21.801Z,12.82
2018-02-06T00:17:49.357Z,13.13
2018-02-06T00:20:17.695Z,13.15
2018-02-06T00:22:50.118Z,13.50
2018-02-06T00:25:17.699Z,12.00
2018-02-06T00:27:46.030Z,12.45
2018-02-06T00:30:14.381Z,11.97
2018-02-06T00:32:41.934Z,12.52
2018-02-06T00:35:10.262Z,11.90
2018-02-06T00:37:37.831Z,13.40
2018-02-06T00:40:05.418Z,12.27
2018-02-06T00:42:32.992Z,12.43
2018-02-06T00:45:00.575Z,12.77
2018-02-06T00:47:28.113Z,12.75
2018-02-06T00:49:56.442Z,11.98
2018-02-06T00:52:24.212Z,11.38
2018-02-06T00:54:51.868Z,12.83
2018-02-06T00:57:19.414Z,13.75
2018-02-06T00:59:47.218Z,12.68
2018-02-06T01:02:14.786Z,13.73
2018-02-06T01:04:42.402Z,13.32
2018-02-06T01:07:09.942Z,13.90
2018-02-06T01:09:37.802Z,14.02
2018-02-06T01:12:06.153Z,15.40
2018-02-06T01:14:34.481Z,14.43
2018-02-06T01:17:02.026Z,15.27
2018-02-06T01:19:29.599Z,15.18
2018-02-06T01:21:57.145Z,15.23
2018-02-06T01:24:24.710Z,15.65
2018-02-06T01:26:52.322Z,14.93
2018-02-06T01:29:19.897Z,16.60
2018-02-06T01:31:47.472Z,15.23
2018-02-06T01:34:15.429Z,16.12
2018-02-06T01:36:43.782Z,14.40
2018-02-06T01:39:11.757Z,14.57
2018-02-06T01:41:39.370Z,13.88
2018-02-06T01:44:07.098Z,15.13
2018-02-06T01:46:35.449Z,13.50
2018-02-06T01:49:02.998Z,14.00
2018-02-06T01:51:30.566Z,15.05
2018-02-06T01:53:58.119Z,14.05
2018-02-06T01:56:25.934Z,15.93
2018-02-06T01:58:53.744Z,16.50
2018-02-06T02:01:21.310Z,15.00
2018-02-06T02:03:49.067Z,14.13
2018-02-06T02:06:16.639Z,14.82
2018-02-06T02:08:44.207Z,15.05
2018-02-06T02:11:11.778Z,14.00
2018-02-06T02:13:39.324Z,15.90
2018-02-06T02:16:06.898Z,16.07
2018-02-06T02:18:34.441Z,14.60
2018-02-06T02:21:02.011Z,13.68
2018-02-06T02:23:29.545Z,13.73
2018-02-06T02:25:57.098Z,15.43
2018-02-06T02:28:24.637Z,14.90
2018-02-06T02:30:52.208Z,16.08
2018-02-06T02:33:19.773Z,14.52
2018-02-06T02:35:47.360Z,15.40
2018-02-06T02:38:14.936Z,15.00
2018-02-06T02:40:42.567Z,15.38
2018-02-06T04:38:48.598Z,15.02
2018-02-06T04:41:16.140Z,16.62
2018-02-06T04:43:44.470Z,14.53
2018-02-06T04:46:12.022Z,14.52
2018-02-06T04:48:39.596Z,13.48
2018-02-06T04:51:07.181Z,16.40
2018-02-06T04:53:35.512Z,16.90
2018-02-06T04:56:03.825Z,16.37
2018-02-06T04:58:31.397Z,16.00
2018-02-06T05:00:59.702Z,17.40
2018-02-06T05:03:27.241Z,16.70
2018-02-06T05:05:55.572Z,15.70
2018-02-06T05:08:23.119Z,15.55
2018-02-06T05:10:50.689Z,14.18
2018-02-06T05:13:18.231Z,16.67
2018-02-06T05:15:45.798Z,16.33
2018-02-06T05:18:13.330Z,15.20
2018-02-06T05:20:40.893Z,17.35
2018-02-06T05:23:08.441Z,16.42
2018-02-06T05:25:36.771Z,16.67
2018-02-06T05:28:04.313Z,15.30
2018-02-06T05:30:31.882Z,16.15
2018-02-06T05:32:59.434Z,16.90
2018-02-06T05:35:27.011Z,16.80
2018-02-06T05:37:54.554Z,16.23
2018-02-06T05:40:22.127Z,17.00
2018-02-06T05:42:50.812Z,17.35
2018-02-06T05:45:19.197Z,18.17
2018-02-06T05:47:46.732Z,16.50
2018-02-06T05:50:14.297Z,16.60
2018-02-06T05:52:41.913Z,16.35
2018-02-06T05:55:10.218Z,18.33
2018-02-06T05:57:37.777Z,19.45
2018-02-06T06:00:05.362Z,17.57
2018-02-06T06:02:32.927Z,17.27
2018-02-06T06:05:00.470Z,17.53
2018-02-06T06:07:28.038Z,16.00
2018-02-06T06:09:55.578Z,16.50
2018-02-06T06:12:23.142Z,16.52
2018-02-06T06:14:50.682Z,17.62
2018-02-06T06:17:18.258Z,17.92
2018-02-06T06:19:45.839Z,16.40
2018-02-06T06:22:13.426Z,18.33
2018-02-06T06:24:41.137Z,19.17
2018-02-06T06:27:08.735Z,19.12
2018-02-06T06:29:36.271Z,18.95
2018-02-06T06:52:27.019Z,18.70
2018-02-06T06:54:54.562Z,20.45
2018-02-06T06:57:22.126Z,19.98
2018-02-06T06:59:49.671Z,17.67
2018-02-06T07:02:17.255Z,18.52
2018-02-06T07:04:44.797Z,20.35
2018-02-06T07:07:12.357Z,18.02
2018-02-06T07:09:39.906Z,19.60
2018-02-06T07:12:08.231Z,21.27
2018-02-06T07:14:35.790Z,21.98
2018-02-06T07:17:03.364Z,17.95
2018-02-06T07:19:30.896Z,18.13
2018-02-06T07:21:58.456Z,18.60
2018-02-06T07:24:26.004Z,19.45
2018-02-06T07:26:53.558Z,20.33
2018-02-06T07:29:21.094Z,20.57
2018-02-06T07:31:49.434Z,20.85
2018-02-06T07:34:16.972Z,19.30
2018-02-06T07:36:44.539Z,19.87
2018-02-06T07:39:12.083Z,20.23
2018-02-06T07:41:39.662Z,20.17
2018-02-06T07:44:07.973Z,17.77
2018-02-06T07:46:35.542Z,20.58
2018-02-06T07:49:03.842Z,18.93
2018-02-06T07:51:31.415Z,21.33
2018-02-06T07:53:58.981Z,21.07
2018-02-06T07:56:26.546Z,19.80
2018-02-06T07:58:54.091Z,21.65
2018-02-06T08:01:21.671Z,20.90
2018-02-06T08:03:49.217Z,24.00
2018-02-06T08:06:16.782Z,21.83
2018-02-06T08:08:44.317Z,22.37
2018-02-06T08:11:11.877Z,20.10
2018-02-06T08:13:40.178Z,19.60
2018-02-06T08:16:07.739Z,19.57
2018-02-06T08:18:35.279Z,20.10
2018-02-06T08:21:02.847Z,20.60
2018-02-06T08:23:30.383Z,20.40
2018-02-06T08:25:58.718Z,21.43
2018-02-06T08:28:26.253Z,20.70
2018-02-06T08:30:53.819Z,19.97
2018-02-06T08:33:21.355Z,19.63
2018-02-06T08:35:48.891Z,20.17
2018-02-06T08:38:17.211Z,21.53
2018-02-06T08:40:44.743Z,21.70
2018-02-06T08:43:12.314Z,20.88
2018-02-06T08:45:39.855Z,21.60
2018-02-06T08:48:08.184Z,21.20
2018-02-06T08:50:35.727Z,21.90
2018-02-06T08:53:03.302Z,20.73
2018-02-06T08:55:30.847Z,23.17
2018-02-06T08:57:58.422Z,20.90
2018-02-06T09:00:25.970Z,21.60
2018-02-06T09:02:53.527Z,21.70
2018-02-06T09:05:21.071Z,19.90
2018-02-06T09:07:48.648Z,19.60
2018-02-06T09:10:16.186Z,18.95
2018-02-06T09:12:44.502Z,20.23
2018-02-06T09:15:12.035Z,19.43
2018-02-06T09:17:39.585Z,20.60
2018-02-06T09:20:07.123Z,20.57
2018-02-06T09:22:35.445Z,18.23
2018-02-06T09:25:02.982Z,20.70
2018-02-06T09:27:30.537Z,22.00
2018-02-06T09:29:58.075Z,19.43
2018-02-06T09:32:26.428Z,19.50
2018-02-06T09:34:53.976Z,20.83
2018-02-06T09:37:21.506Z,18.40
2018-02-06T09:39:49.076Z,19.17
2018-02-06T09:42:16.602Z,18.63
2018-02-06T09:44:44.930Z,17.60
2018-02-06T09:47:12.454Z,19.30
2018-02-06T09:49:39.998Z,20.17
2018-02-06T09:52:08.300Z,19.50
2018-02-06T09:54:35.853Z,20.90
2018-02-06T09:57:03.394Z,18.70
2018-02-06T09:59:31.724Z,18.63
2018-02-06T10:01:59.246Z,18.57
2018-02-06T10:04:26.806Z,18.10
2018-02-06T10:06:54.353Z,19.47
2018-02-06T10:09:22.674Z,18.17
2018-02-06T10:11:50.205Z,18.80
2018-02-06T10:14:17.770Z,17.73
2018-02-06T10:16:45.313Z,17.93
2018-02-06T10:19:13.633Z,17.90
2018-02-06T10:21:41.165Z,18.83
2018-02-06T10:24:08.690Z,19.50
2018-02-06T10:26:36.243Z,18.37
2018-02-06T10:29:03.773Z,19.00
2018-02-06T10:31:31.322Z,19.67
2018-02-06T10:33:58.859Z,18.63
2018-02-06T10:36:26.410Z,19.33
2018-02-06T10:38:54.702Z,18.80
2018-02-06T10:41:22.262Z,18.90
2018-02-06T10:43:49.801Z,17.00
2018-02-06T10:46:18.131Z,17.53
2018-02-06T10:48:45.672Z,17.70
2018-02-06T10:51:13.232Z,20.20
2018-02-06T10:53:40.763Z,17.00
2018-02-06T10:56:08.324Z,18.87
2018-02-06T10:58:36.623Z,18.03
2018-02-06T11:01:04.902Z,17.30
2018-02-06T11:03:32.618Z,20.87
2018-02-06T11:06:00.217Z,18.30
2018-02-06T11:08:27.750Z,19.47
2018-02-06T11:10:56.050Z,17.70
2018-02-06T11:13:23.606Z,18.07
2018-02-06T11:15:51.138Z,18.37
2018-02-06T11:18:19.473Z,19.10
2018-02-06T11:20:47.006Z,19.53
2018-02-06T11:23:14.554Z,20.00
2018-02-06T11:25:43.390Z,18.47
2018-02-06T11:28:11.004Z,19.73
2018-02-06T11:30:39.293Z,19.00
2018-02-06T11:33:06.849Z,18.17
2018-02-06T11:35:34.387Z,19.47
2018-02-06T11:38:02.962Z,18.90
2018-02-06T11:40:30.498Z,18.17
2018-02-06T11:42:58.056Z,17.70
2018-02-06T11:45:25.587Z,19.33
2018-02-06T11:47:53.189Z,18.40
2018-02-06T11:50:20.766Z,19.50
2018-02-06T11:52:49.087Z,18.90
2018-02-06T11:55:16.614Z,20.33
2018-02-06T11:57:44.946Z,20.03
2018-02-06T12:00:12.479Z,19.73
2018-02-06T12:02:40.057Z,18.37
2018-02-06T12:05:07.626Z,17.50
2018-02-06T12:07:35.197Z,20.17
2018-02-06T12:10:02.729Z,17.80
2018-02-06T12:12:30.286Z,19.57
2018-02-06T12:14:57.814Z,18.00
2018-02-06T12:17:26.150Z,18.00
2018-02-06T12:19:53.683Z,18.47
2018-02-06T12:22:21.310Z,19.47
2018-02-06T12:24:49.613Z,19.60
2018-02-06T12:27:17.969Z,19.90
2018-02-06T12:29:45.536Z,18.90
2018-02-06T12:32:13.853Z,18.47
2018-02-06T12:34:41.385Z,18.07
2018-02-06T12:37:08.931Z,19.80
2018-02-06T12:39:36.468Z,19.47
2018-02-06T12:42:04.788Z,20.07
2018-02-06T12:44:32.322Z,20.53
2018-02-06T12:47:00.643Z,19.37
2018-02-06T12:49:28.173Z,19.07
2018-02-06T12:51:55.735Z,19.33
2018-02-06T12:54:23.266Z,18.30
2018-02-06T12:56:51.562Z,18.57
2018-02-06T12:59:19.113Z,18.37
2018-02-06T13:01:47.413Z,19.80
2018-02-06T13:04:14.967Z,19.80
2018-02-06T13:06:42.495Z,20.20
2018-02-06T13:09:10.819Z,18.33
2018-02-06T13:11:38.342Z,20.03
2018-02-06T13:14:06.661Z,19.53
2018-02-06T13:16:34.193Z,19.70
2018-02-06T13:19:01.748Z,19.40
2018-02-06T13:21:29.282Z,19.60
2018-02-06T13:23:56.833Z,18.50
2018-02-06T13:26:24.372Z,20.13
2018-02-06T13:28:51.931Z,20.60
2018-02-06T13:31:19.473Z,19.87
2018-02-06T13:33:47.604Z,19.00
2018-02-06T13:36:15.914Z,19.33
2018-02-06T13:38:43.465Z,19.50
2018-02-06T13:41:10.992Z,17.77
2018-02-06T13:43:38.541Z,18.87
2018-02-06T13:46:06.070Z,19.80
2018-02-06T13:48:33.658Z,19.70
2018-02-06T13:51:01.979Z,19.23
2018-02-06T13:53:29.537Z,19.03
2018-02-06T13:55:57.086Z,18.27
2018-02-06T13:58:24.646Z,18.07
2018-02-06T14:00:52.944Z,18.50
2018-02-06T14:03:20.499Z,19.40
2018-02-06T14:05:48.094Z,20.93
2018-02-06T14:08:15.657Z,18.73
2018-02-06T14:10:43.191Z,20.90
2018-02-06T14:13:10.885Z,21.27
2018-02-06T14:15:38.464Z,19.13
2018-02-06T14:18:06.203Z,20.10
2018-02-06T14:20:33.744Z,19.13
2018-02-06T14:23:01.302Z,20.57
2018-02-06T14:25:29.597Z,20.50
2018-02-06T14:27:57.153Z,18.20
2018-02-06T14:30:24.770Z,19.30
2018-02-06T14:32:53.091Z,18.03
2018-02-06T14:35:20.670Z,20.30
2018-02-06T14:37:48.226Z,18.83
2018-02-06T14:40:15.764Z,20.30
2018-02-06T14:42:43.322Z,18.70
2018-02-06T14:45:10.863Z,20.67
2018-02-06T14:47:38.418Z,20.37
2018-02-06T14:50:06.273Z,20.17
2018-02-06T14:52:34.597Z,19.20
2018-02-06T14:55:02.125Z,20.57
2018-02-06T14:57:29.662Z,20.40
2018-02-06T14:59:58.065Z,19.00
2018-02-06T15:02:25.606Z,19.57
2018-02-06T15:07:47.389Z,18.27
2018-02-06T15:10:14.944Z,21.10
2018-02-06T15:12:42.504Z,20.50
2018-02-06T15:15:10.051Z,19.70
2018-02-06T15:17:37.606Z,20.77
2018-02-06T15:20:05.245Z,20.43
2018-02-06T15:22:32.798Z,19.70
2018-02-06T15:25:01.135Z,19.33
2018-02-06T15:27:28.669Z,19.73
2018-02-06T15:29:56.230Z,22.20
2018-02-06T15:32:23.758Z,21.13
2018-02-06T15:34:52.117Z,19.27
2018-02-06T15:37:19.642Z,20.47
2018-02-06T15:39:47.202Z,21.27
2018-02-06T15:42:15.498Z,22.30
2018-02-06T15:44:43.054Z,22.10
2018-02-06T15:47:10.586Z,22.63
2018-02-06T15:49:38.142Z,20.30
2018-02-06T15:52:06.454Z,21.20
2018-02-06T15:54:34.039Z,21.47
2018-02-06T15:57:01.568Z,19.90
2018-02-06T15:59:29.135Z,22.50
2018-02-06T16:01:56.675Z,21.40
2018-02-06T16:04:24.245Z,20.07
2018-02-06T16:06:51.786Z,21.10
2018-02-06T16:09:19.336Z,19.23
2018-02-06T16:11:46.973Z,20.50
2018-02-06T16:14:15.317Z,19.97
2018-02-06T16:16:42.839Z,20.20
2018-02-06T16:19:10.393Z,21.30
2018-02-06T16:24:31.857Z,22.67
2018-02-06T16:26:59.382Z,23.07
2018-02-06T16:29:26.945Z,21.07
2018-02-06T16:31:54.489Z,21.60
2018-02-06T16:34:22.814Z,21.33
2018-02-06T16:36:50.342Z,21.27
2018-02-06T16:39:17.902Z,23.13
2018-02-06T16:41:45.441Z,21.33
2018-02-06T16:44:13.765Z,21.33
2018-02-06T16:46:41.372Z,21.83
2018-02-06T16:49:08.929Z,21.53
2018-02-06T16:51:37.258Z,20.80
2018-02-06T16:54:04.814Z,22.80
2018-02-06T16:56:32.342Z,22.37
2018-02-06T16:59:00.661Z,22.20
2018-02-06T17:01:28.189Z,23.13
2018-02-06T17:03:56.509Z,22.20
2018-02-06T17:06:24.047Z,22.43
2018-02-06T17:08:51.608Z,19.53
2018-02-06T17:11:19.135Z,21.23
2018-02-06T17:13:47.449Z,20.27
2018-02-06T17:16:14.990Z,20.83
2018-02-06T17:18:42.548Z,22.03
2018-02-06T17:21:10.078Z,22.30
2018-02-06T17:23:38.400Z,19.73
2018-02-06T17:26:05.930Z,22.27
2018-02-06T17:28:34.250Z,22.87
2018-02-06T17:31:01.779Z,21.23
2018-02-06T17:33:29.333Z,21.80
2018-02-06T17:35:56.871Z,20.90
2018-02-06T17:38:25.190Z,19.73
2018-02-06T17:40:52.717Z,21.30
2018-02-06T17:43:21.062Z,22.00
2018-02-06T17:45:48.585Z,21.00
2018-02-06T17:48:16.150Z,22.40
2018-02-06T17:50:44.048Z,23.07
2018-02-06T17:53:12.861Z,24.50
2018-02-06T17:55:41.266Z,20.50
2018-02-06T17:58:08.853Z,23.13
2018-02-06T18:00:37.251Z,22.97
2018-02-06T18:03:04.795Z,22.70
2018-02-06T18:05:32.361Z,22.20
2018-02-06T18:07:59.894Z,22.20
2018-02-06T18:10:27.446Z,22.23
2018-02-06T18:12:55.210Z,22.10
2018-02-06T18:15:22.784Z,22.00
2018-02-06T18:17:50.310Z,21.77
2018-02-06T18:20:18.638Z,25.40
2018-02-06T18:22:46.166Z,24.10
2018-02-06T18:25:13.878Z,23.80
2018-02-06T18:27:42.208Z,23.57
2018-02-06T18:30:10.526Z,22.83
2018-02-06T18:32:38.089Z,22.73
2018-02-06T18:35:05.651Z,21.63
2018-02-06T18:37:33.181Z,25.20
2018-02-06T18:40:00.742Z,21.70
2018-02-06T18:42:28.290Z,24.97
2018-02-06T18:44:55.850Z,23.37
2018-02-06T18:47:23.387Z,23.13
2018-02-06T18:49:51.705Z,24.20
2018-02-06T18:52:19.247Z,25.37
2018-02-06T18:54:46.839Z,25.17
2018-02-06T18:57:15.139Z,25.57
2018-02-06T18:59:42.705Z,24.13
2018-02-06T19:02:10.229Z,27.10
2018-02-06T19:04:37.786Z,25.90
2018-02-06T19:07:05.313Z,25.70
2018-02-06T19:09:32.870Z,24.67
2018-02-06T19:12:01.162Z,26.10
2018-02-06T19:14:28.729Z,24.63
2018-02-06T19:16:56.275Z,25.00
2018-02-06T19:19:23.861Z,26.23
2018-02-06T19:21:51.394Z,25.20
2018-02-06T19:24:18.962Z,24.60
2018-02-06T19:26:46.574Z,24.60
2018-02-06T19:29:14.234Z,25.80
2018-02-06T19:31:41.809Z,27.70
2018-02-06T19:34:09.374Z,27.27
2018-02-06T19:36:37.674Z,26.10
2018-02-06T19:39:05.258Z,27.10
2018-02-06T19:41:32.821Z,25.07
2018-02-06T19:44:00.385Z,23.83
2018-02-06T19:46:27.954Z,28.65
2018-02-06T19:48:55.518Z,23.57
2018-02-06T19:51:23.050Z,27.53
2018-02-06T19:53:50.719Z,25.37
2018-02-06T19:56:18.251Z,24.93
2018-02-06T19:58:45.826Z,24.15
2018-02-06T20:01:13.376Z,26.50
2018-02-06T20:03:40.937Z,25.10
2018-02-06T20:06:08.501Z,25.17
2018-02-06T20:08:36.030Z,26.43
2018-02-06T20:11:04.351Z,28.37
2018-02-06T20:13:31.886Z,24.77
2018-02-06T20:16:00.206Z,25.03
2018-02-06T20:18:27.742Z,25.77
2018-02-06T20:20:55.359Z,26.13
2018-02-06T20:23:23.892Z,26.33
2018-02-06T20:25:51.475Z,24.30
2018-02-06T20:28:19.016Z,25.60
2018-02-06T20:30:46.600Z,24.87
2018-02-06T20:33:14.137Z,26.30
2018-02-06T20:35:41.698Z,24.70
2018-02-06T20:38:09.234Z,27.27
2018-02-06T20:40:36.798Z,25.37
2018-02-06T20:43:04.343Z,24.67
2018-02-06T20:45:32.669Z,24.67
2018-02-06T20:48:00.202Z,23.97
2018-02-06T20:50:27.759Z,24.20
2018-02-06T20:52:55.318Z,23.90
2018-02-06T20:55:22.871Z,27.57
2018-02-06T20:57:50.419Z,26.57
2018-02-06T21:00:18.751Z,26.43
2018-02-06T21:02:46.288Z,28.37
2018-02-06T21:05:13.850Z,28.60
2018-02-06T21:07:41.392Z,29.63
2018-02-06T21:10:08.955Z,28.47
2018-02-06T21:12:36.527Z,28.63
2018-02-06T21:15:04.119Z,29.20
2018-02-06T21:17:31.670Z,28.05
2018-02-06T21:19:59.234Z,25.95
2018-02-06T21:22:26.774Z,25.27
2018-02-06T21:24:54.338Z,29.43
2018-02-06T21:27:21.877Z,24.80
2018-02-06T21:29:49.450Z,22.90
2018-02-06T21:32:16.990Z,27.40
2018-02-06T21:34:44.552Z,27.90
2018-02-06T21:37:12.094Z,26.20
2018-02-06T21:39:40.424Z,26.80
2018-02-06T21:42:07.966Z,24.83
2018-02-06T21:44:35.534Z,26.17
2018-02-06T21:47:03.182Z,24.77
2018-02-06T21:49:30.762Z,25.93
2018-02-06T21:51:58.318Z,24.17
2018-02-06T21:54:25.881Z,26.30
2018-02-06T21:56:53.417Z,24.80
2018-02-06T21:59:20.969Z,24.53
2018-02-06T22:01:48.506Z,26.23
2018-02-06T22:04:16.830Z,26.00
2018-02-06T22:06:44.359Z,23.37
2018-02-06T22:09:11.919Z,24.47
2018-02-06T22:11:39.455Z,24.30
2018-02-06T22:14:07.758Z,28.57
2018-02-06T22:16:35.321Z,25.87
2018-02-06T22:19:02.862Z,25.47
2018-02-06T22:21:31.189Z,26.83
2018-02-06T22:23:58.750Z,28.00
2018-02-06T22:26:26.314Z,23.07
2018-02-06T22:28:53.845Z,26.80
2018-02-06T22:31:21.401Z,26.27
2018-02-06T22:33:48.937Z,24.77
2018-02-06T22:36:17.260Z,25.23
2018-02-06T22:38:44.797Z,27.50
2018-02-06T22:41:13.129Z,24.30
2018-02-06T22:43:40.734Z,25.77
2018-02-06T22:46:08.316Z,26.80
2018-02-06T22:48:35.934Z,25.77
2018-02-06T22:51:04.288Z,26.57
2018-02-06T22:53:31.826Z,27.50
2018-02-06T22:55:59.390Z,25.80
2018-02-06T22:58:26.917Z,27.30
2018-02-06T23:00:55.257Z,27.90
2018-02-06T23:03:23.562Z,27.23
2018-02-06T23:05:51.123Z,28.40
2018-02-06T23:08:18.667Z,25.90
2018-02-06T23:10:46.998Z,27.98
2018-02-06T23:13:14.527Z,27.57
2018-02-06T23:15:42.085Z,28.07
2018-02-06T23:18:09.625Z,28.05
2018-02-06T23:20:37.956Z,25.80
2018-02-06T23:23:05.497Z,25.50
2018-02-06T23:25:33.062Z,27.30
2018-02-06T23:28:00.597Z,25.90
2018-02-06T23:30:28.167Z,26.90
2018-02-06T23:32:56.503Z,25.95
2018-02-06T23:35:24.075Z,27.50
2018-02-06T23:37:52.381Z,27.97
2018-02-06T23:40:19.934Z,27.87
2018-02-06T23:42:47.478Z,28.83
2018-02-06T23:45:15.081Z,29.58
2018-02-06T23:47:42.622Z,28.73
2018-02-06T23:50:10.211Z,28.77
2018-02-06T23:52:37.753Z,26.95
2018-02-06T23:55:05.331Z,28.42
2018-02-06T23:57:32.878Z,27.00
